Time;durP1;ratioP1;P1;durP2;ratioP2;P2;SDS_P1;SDS_P2;PMS_P1;PMS_P2;Temp;Humidity;BMP_temperature;BMP_pressure;BME280_temperature;BME280_humidity;BME280_pressure;Samples;Min_cycle;Max_cycle;Signal;HPM_P1;HPM_P2
2021/05/14 00:01:40;;;;;;;;;;;9.20;99.90;;;;;;5010263;28;20094;-54
2021/05/14 00:04:05;;;;;;;;;;;9.20;99.90;;;;;;4998100;28;20001;-52
2021/05/14 00:06:31;;;;;;;;;;;9.30;99.90;;;;;;4996724;28;19909;-53
2021/05/14 00:08:56;;;;;;;;;;;9.20;99.90;;;;;;4995580;28;19933;-50
2021/05/14 00:11:22;;;;;;;;;;;9.20;99.90;;;;;;4997367;28;19988;-54
2021/05/14 00:13:47;;;;;;;;;;;9.20;99.90;;;;;;4995853;28;19906;-53
2021/05/14 00:16:13;;;;;;;;;;;9.20;99.90;;;;;;4995799;28;20307;-54
2021/05/14 00:18:38;;;;;;;;;;;9.20;99.90;;;;;;4997169;28;19910;-56
2021/05/14 00:21:04;;;;;;;;;;;9.10;99.90;;;;;;4995039;28;20475;-55
2021/05/14 00:23:29;;;;;;;;;;;9.10;99.90;;;;;;4993501;28;19918;-53
2021/05/14 00:25:55;;;;;;;;;;;9.10;99.90;;;;;;4993395;28;20431;-53
2021/05/14 00:28:20;;;;;;;;;;;9.10;99.90;;;;;;5010191;28;19996;-55
2021/05/14 00:30:46;;;;;;;;;;;9.10;99.90;;;;;;4995551;28;20384;-54
2021/05/14 00:33:12;;;;;;;;;;;9.10;99.90;;;;;;4995417;28;20264;-52
2021/05/14 00:35:37;;;;;;;;;;;9.10;99.90;;;;;;4995022;28;20432;-54
2021/05/14 00:38:03;;;;;;;;;;;9.10;99.90;;;;;;5011196;28;20005;-56
2021/05/14 00:40:29;;;;;;;;;;;9.10;99.90;;;;;;4991473;28;19909;-53
2021/05/14 00:42:54;;;;;;;;;;;9.10;99.90;;;;;;4992612;28;19964;-52
2021/05/14 00:45:20;;;;;;;;;;;9.10;99.90;;;;;;4994591;28;19953;-53
2021/05/14 00:47:45;;;;;;;;;;;9.10;99.90;;;;;;4995077;28;19906;-54
2021/05/14 00:50:11;;;;;;;;;;;9.10;99.90;;;;;;4994745;28;19913;-53
2021/05/14 00:52:37;;;;;;;;;;;9.10;99.90;;;;;;4995853;28;19913;-57
2021/05/14 00:55:03;;;;;;;;;;;9.10;99.90;;;;;;4993391;28;20288;-53
2021/05/14 00:57:30;;;;;;;;;;;9.10;99.90;;;;;;4995116;28;20004;-52
2021/05/14 00:59:56;;;;;;;;;;;9.10;99.90;;;;;;4990121;28;19909;-53
2021/05/14 01:02:21;;;;;;;;;;;9.00;99.90;;;;;;4992108;28;19936;-52
2021/05/14 01:04:48;;;;;;;;;;;9.00;99.90;;;;;;4991241;28;19909;-53
2021/05/14 01:07:13;;;;;;;;;;;9.00;99.90;;;;;;4999722;28;19933;-52
2021/05/14 01:09:39;;;;;;;;;;;9.00;99.90;;;;;;4992758;28;19983;-49
2021/05/14 01:12:05;;;;;;;;;;;9.00;99.90;;;;;;4992290;28;19913;-52
2021/05/14 01:14:31;;;;;;;;;;;9.10;99.90;;;;;;5010140;28;19940;-54
2021/05/14 01:16:57;;;;;;;;;;;9.00;99.90;;;;;;4994209;28;20001;-52
2021/05/14 01:19:22;;;;;;;;;;;9.10;99.90;;;;;;4994081;28;20072;-54
2021/05/14 01:21:48;;;;;;;;;;;9.00;99.90;;;;;;4994493;28;19906;-53
2021/05/14 01:24:13;;;;;;;;;;;9.10;99.90;;;;;;4993617;28;19910;-53
2021/05/14 01:26:39;;;;;;;;;;;9.10;99.90;;;;;;4992173;28;20339;-55
2021/05/14 01:29:07;;;;;;;;;;;9.10;99.90;;;;;;4992639;28;19913;-55
2021/05/14 01:31:33;;;;;;;;;;;9.10;99.90;;;;;;4991021;28;19909;-55
2021/05/14 01:33:58;;;;;;;;;;;9.10;99.90;;;;;;4992730;28;19912;-55
2021/05/14 01:36:24;;;;;;;;;;;9.10;99.90;;;;;;4993178;28;19933;-51
2021/05/14 01:38:49;;;;;;;;;;;9.10;99.90;;;;;;4992751;28;20380;-55
2021/05/14 01:41:15;;;;;;;;;;;9.10;99.90;;;;;;4992308;28;19912;-56
2021/05/14 01:43:40;;;;;;;;;;;9.10;99.90;;;;;;4989997;28;19906;-53
2021/05/14 01:46:06;;;;;;;;;;;9.10;99.90;;;;;;4991243;28;19960;-56
2021/05/14 01:48:32;;;;;;;;;;;9.10;99.90;;;;;;4993184;28;19913;-55
2021/05/14 01:53:27;;;;;;;;;;;9.10;99.90;;;;;;5062011;23;19952;-55
2021/05/14 01:55:52;;;;;;;;;;;9.10;99.90;;;;;;5003483;28;19952;-62
2021/05/14 01:58:17;;;;;;;;;;;9.10;99.90;;;;;;5008976;28;19906;-60
2021/05/14 02:00:43;;;;;;;;;;;9.10;99.90;;;;;;5009682;28;19905;-55
2021/05/14 02:03:08;;;;;;;;;;;9.10;99.90;;;;;;5009629;28;20419;-58
2021/05/14 02:05:34;;;;;;;;;;;9.10;99.90;;;;;;5003108;28;19956;-58
2021/05/14 02:07:59;;;;;;;;;;;9.10;99.90;;;;;;5000835;28;19913;-57
2021/05/14 02:10:25;;;;;;;;;;;9.10;99.90;;;;;;5007300;28;19913;-56
2021/05/14 02:12:50;;;;;;;;;;;9.10;99.90;;;;;;5007547;28;20367;-55
2021/05/14 02:15:16;;;;;;;;;;;9.10;99.90;;;;;;5005899;28;19909;-54
2021/05/14 02:17:43;;;;;;;;;;;9.10;99.90;;;;;;5005353;28;19912;-56
2021/05/14 02:20:09;;;;;;;;;;;9.10;99.90;;;;;;5006034;28;19967;-56
2021/05/14 02:22:35;;;;;;;;;;;9.10;99.90;;;;;;5001361;28;19910;-59
2021/05/14 02:25:00;;;;;;;;;;;9.10;99.90;;;;;;4990876;28;19910;-54
2021/05/14 02:27:26;;;;;;;;;;;9.10;99.90;;;;;;4990827;28;19913;-56
2021/05/14 02:29:52;;;;;;;;;;;9.10;99.90;;;;;;4990985;28;19912;-59
2021/05/14 02:32:17;;;;;;;;;;;9.00;99.90;;;;;;4990692;28;19996;-58
2021/05/14 02:34:43;;;;;;;;;;;9.00;99.90;;;;;;4991319;28;20007;-56
2021/05/14 02:37:08;;;;;;;;;;;9.00;99.90;;;;;;4990627;28;19921;-56
2021/05/14 02:39:34;;;;;;;;;;;9.10;99.90;;;;;;4988700;28;19906;-58
2021/05/14 02:41:59;;;;;;;;;;;9.10;99.90;;;;;;4990587;28;19905;-61
2021/05/14 02:44:25;;;;;;;;;;;9.00;99.90;;;;;;4990555;28;20392;-55
2021/05/14 02:46:51;;;;;;;;;;;9.00;99.90;;;;;;4990437;28;19912;-57
2021/05/14 02:49:17;;;;;;;;;;;9.00;99.90;;;;;;4990402;28;20384;-58
2021/05/14 02:51:43;;;;;;;;;;;9.00;99.90;;;;;;4990163;28;19909;-58
2021/05/14 02:54:08;;;;;;;;;;;9.10;99.90;;;;;;4990023;28;19913;-60
2021/05/14 02:56:33;;;;;;;;;;;9.00;99.90;;;;;;4992209;28;20376;-56
2021/05/14 02:58:59;;;;;;;;;;;9.00;99.90;;;;;;4990341;28;19941;-57
2021/05/14 03:01:24;;;;;;;;;;;9.00;99.90;;;;;;4990085;28;20380;-59
2021/05/14 03:03:50;;;;;;;;;;;9.00;99.90;;;;;;4990250;28;19913;-54
2021/05/14 03:06:16;;;;;;;;;;;9.10;99.90;;;;;;4990386;28;19982;-58
2021/05/14 03:08:42;;;;;;;;;;;9.10;99.90;;;;;;4990061;28;19906;-56
2021/05/14 03:11:08;;;;;;;;;;;9.10;99.90;;;;;;4989990;28;19906;-58
2021/05/14 03:13:33;;;;;;;;;;;9.00;99.90;;;;;;4989801;28;19905;-59
2021/05/14 03:15:59;;;;;;;;;;;9.00;99.90;;;;;;4990266;28;19976;-58
2021/05/14 03:18:25;;;;;;;;;;;9.00;99.90;;;;;;4990433;28;19912;-61
2021/05/14 03:20:50;;;;;;;;;;;9.00;99.90;;;;;;4990084;28;20006;-56
2021/05/14 03:23:16;;;;;;;;;;;9.00;99.90;;;;;;4989687;28;19906;-57
2021/05/14 03:25:42;;;;;;;;;;;9.00;99.90;;;;;;4987768;28;20283;-57
2021/05/14 03:28:07;;;;;;;;;;;9.00;99.90;;;;;;4990388;28;20444;-60
2021/05/14 03:30:33;;;;;;;;;;;9.00;99.90;;;;;;4989691;28;19920;-55
2021/05/14 03:32:58;;;;;;;;;;;9.00;99.90;;;;;;4983361;28;19906;-58
2021/05/14 03:35:24;;;;;;;;;;;9.00;99.90;;;;;;4989824;28;19912;-57
2021/05/14 03:37:49;;;;;;;;;;;9.00;99.90;;;;;;4990249;28;19909;-61
2021/05/14 03:40:18;;;;;;;;;;;9.00;99.90;;;;;;4989341;28;20486;-58
2021/05/14 03:42:44;;;;;;;;;;;9.00;99.90;;;;;;4990039;28;20352;-59
2021/05/14 03:45:10;;;;;;;;;;;9.00;99.90;;;;;;4989220;28;20004;-61
2021/05/14 03:47:36;;;;;;;;;;;9.00;99.90;;;;;;4989320;28;20269;-58
2021/05/14 03:50:02;;;;;;;;;;;9.00;99.90;;;;;;4989234;28;19906;-61
2021/05/14 03:52:28;;;;;;;;;;;9.00;99.90;;;;;;4988791;28;19913;-60
2021/05/14 03:54:53;;;;;;;;;;;9.00;99.90;;;;;;4974120;28;19906;-57
2021/05/14 03:57:19;;;;;;;;;;;9.00;99.90;;;;;;4983960;28;19906;-60
2021/05/14 03:59:44;;;;;;;;;;;9.00;99.90;;;;;;4989180;28;19906;-58
2021/05/14 04:02:11;;;;;;;;;;;9.00;99.90;;;;;;4989442;28;19910;-61
2021/05/14 04:04:36;;;;;;;;;;;9.00;99.90;;;;;;4989021;28;19917;-61
2021/05/14 04:07:04;;;;;;;;;;;9.00;99.90;;;;;;4989398;28;20182;-60
2021/05/14 04:09:32;;;;;;;;;;;9.10;99.90;;;;;;4989002;28;20347;-60
2021/05/14 04:14:33;;;;;;;;;;;9.10;99.90;;;;;;4989099;28;20371;-60
2021/05/14 04:17:03;;;;;;;;;;;9.00;99.90;;;;;;4988043;28;19988;-59
2021/05/14 04:19:29;;;;;;;;;;;9.00;99.90;;;;;;4989101;28;19913;-60
2021/05/14 04:21:55;;;;;;;;;;;9.00;99.90;;;;;;4988743;28;19906;-60
2021/05/14 04:24:21;;;;;;;;;;;9.00;99.90;;;;;;4989057;28;20311;-59
2021/05/14 04:26:50;;;;;;;;;;;9.00;99.90;;;;;;4989338;28;19913;-61
2021/05/14 04:29:16;;;;;;;;;;;9.00;99.90;;;;;;4987900;28;19912;-59
2021/05/14 04:31:42;;;;;;;;;;;9.10;99.90;;;;;;4988770;28;19906;-62
2021/05/14 04:34:08;;;;;;;;;;;9.00;99.90;;;;;;4990815;28;19906;-61
2021/05/14 04:36:34;;;;;;;;;;;9.00;99.90;;;;;;4993129;28;19906;-61
2021/05/14 04:38:59;;;;;;;;;;;9.00;99.90;;;;;;4991338;28;19952;-59
2021/05/14 04:41:25;;;;;;;;;;;9.00;99.90;;;;;;4992747;28;19905;-59
2021/05/14 04:43:50;;;;;;;;;;;8.90;99.90;;;;;;4992992;28;19959;-59
2021/05/14 04:46:16;;;;;;;;;;;8.90;99.90;;;;;;4992694;28;19914;-59
2021/05/14 04:48:41;;;;;;;;;;;8.90;99.90;;;;;;4992902;28;19921;-62
2021/05/14 04:51:08;;;;;;;;;;;8.90;99.90;;;;;;4992668;28;20020;-58
2021/05/14 04:53:35;;;;;;;;;;;8.90;99.90;;;;;;4986922;28;19918;-60
2021/05/14 04:56:01;;;;;;;;;;;8.90;99.90;;;;;;4978563;28;19906;-58
2021/05/14 04:58:26;;;;;;;;;;;8.90;99.90;;;;;;4992586;28;19912;-61
2021/05/14 05:00:52;;;;;;;;;;;8.90;99.90;;;;;;4992206;28;19906;-61
2021/05/14 05:03:18;;;;;;;;;;;8.90;99.90;;;;;;4992577;28;20360;-61
2021/05/14 05:05:43;;;;;;;;;;;8.80;99.90;;;;;;4992549;28;19913;-60
2021/05/14 05:08:09;;;;;;;;;;;8.90;99.90;;;;;;4992527;28;19981;-61
2021/05/14 05:10:34;;;;;;;;;;;8.80;99.90;;;;;;4992554;28;20299;-59
2021/05/14 05:13:00;;;;;;;;;;;8.90;99.90;;;;;;4991693;28;19913;-61
2021/05/14 05:15:25;;;;;;;;;;;8.90;99.90;;;;;;4991928;28;20319;-62
2021/05/14 05:17:50;;;;;;;;;;;8.90;99.90;;;;;;4992159;28;19912;-62
2021/05/14 05:20:16;;;;;;;;;;;8.90;99.90;;;;;;4991625;28;19910;-61
2021/05/14 05:22:41;;;;;;;;;;;8.90;99.90;;;;;;4992137;28;19937;-58
2021/05/14 05:25:07;;;;;;;;;;;8.90;99.90;;;;;;4992223;28;19913;-60
2021/05/14 05:27:33;;;;;;;;;;;8.90;99.90;;;;;;4992385;28;19910;-62
2021/05/14 05:29:58;;;;;;;;;;;8.90;99.90;;;;;;4991784;28;19906;-61
2021/05/14 05:32:24;;;;;;;;;;;9.00;99.90;;;;;;4991037;28;20052;-59
2021/05/14 05:34:49;;;;;;;;;;;9.00;99.90;;;;;;4987711;28;19925;-60
2021/05/14 05:37:15;;;;;;;;;;;9.00;99.90;;;;;;4991394;28;19921;-62
2021/05/14 05:39:40;;;;;;;;;;;9.10;99.90;;;;;;4990100;28;20392;-61
2021/05/14 05:42:05;;;;;;;;;;;9.10;99.90;;;;;;4991459;28;20455;-60
2021/05/14 05:44:31;;;;;;;;;;;9.10;99.90;;;;;;4991571;28;19909;-61
2021/05/14 05:46:57;;;;;;;;;;;9.10;99.90;;;;;;4991384;28;19959;-58
2021/05/14 05:49:22;;;;;;;;;;;9.10;99.90;;;;;;4991354;28;19912;-62
2021/05/14 05:51:48;;;;;;;;;;;9.10;99.90;;;;;;4990756;28;19964;-60
2021/05/14 05:54:14;;;;;;;;;;;9.10;99.90;;;;;;4981080;28;19961;-63
2021/05/14 05:56:42;;;;;;;;;;;9.20;99.90;;;;;;4981177;28;19957;-60
2021/05/14 05:59:10;;;;;;;;;;;9.20;99.90;;;;;;4991359;28;19913;-63
2021/05/14 06:01:35;;;;;;;;;;;9.20;99.90;;;;;;4991467;28;19906;-60
2021/05/14 06:04:01;;;;;;;;;;;9.20;99.90;;;;;;4984910;28;19965;-59
2021/05/14 06:06:28;;;;;;;;;;;9.20;99.90;;;;;;4989917;28;19917;-60
2021/05/14 06:08:53;;;;;;;;;;;9.20;99.90;;;;;;4991117;28;20086;-60
2021/05/14 06:11:19;;;;;;;;;;;9.30;99.90;;;;;;4990919;28;20025;-61
2021/05/14 06:13:44;;;;;;;;;;;9.30;99.90;;;;;;4990888;28;19909;-61
2021/05/14 06:16:10;;;;;;;;;;;9.30;99.90;;;;;;4991128;28;19940;-56
2021/05/14 06:18:38;;;;;;;;;;;9.30;99.90;;;;;;4990963;28;19905;-61
2021/05/14 06:21:05;;;;;;;;;;;9.30;99.90;;;;;;4990634;28;19959;-61
2021/05/14 06:23:30;;;;;;;;;;;9.40;99.90;;;;;;4989363;28;19941;-62
2021/05/14 06:25:55;;;;;;;;;;;9.40;99.90;;;;;;4990966;28;20333;-60
2021/05/14 06:28:22;;;;;;;;;;;9.50;99.90;;;;;;4995660;28;19909;-61
2021/05/14 06:30:48;;;;;;;;;;;9.50;99.90;;;;;;5007973;28;20067;-63
2021/05/14 06:33:13;;;;;;;;;;;9.40;99.90;;;;;;5008426;28;20046;-59
2021/05/14 06:35:40;;;;;;;;;;;9.50;99.90;;;;;;5003727;28;20008;-59
2021/05/14 06:38:06;;;;;;;;;;;9.50;99.90;;;;;;4991079;28;19999;-61
2021/05/14 06:40:32;;;;;;;;;;;9.50;99.90;;;;;;4989409;28;19960;-61
2021/05/14 06:42:57;;;;;;;;;;;9.50;99.90;;;;;;4990425;28;19906;-63
2021/05/14 06:45:22;;;;;;;;;;;9.50;99.90;;;;;;4990046;28;20291;-60
2021/05/14 06:47:48;;;;;;;;;;;9.40;99.90;;;;;;4990550;28;19906;-60
2021/05/14 06:50:13;;;;;;;;;;;9.40;99.90;;;;;;4990242;28;19979;-62
2021/05/14 06:52:39;;;;;;;;;;;9.40;99.90;;;;;;4985072;28;19941;-61
2021/05/14 06:55:05;;;;;;;;;;;9.40;99.90;;;;;;4977277;28;19905;-61
2021/05/14 06:57:31;;;;;;;;;;;9.40;99.90;;;;;;4989942;28;20443;-59
2021/05/14 06:59:56;;;;;;;;;;;9.40;99.90;;;;;;4988827;28;19905;-59
2021/05/14 07:02:22;;;;;;;;;;;9.40;99.90;;;;;;4989895;28;19966;-61
2021/05/14 07:04:47;;;;;;;;;;;9.40;99.90;;;;;;4989710;28;19917;-61
2021/05/14 07:07:13;;;;;;;;;;;9.40;99.90;;;;;;4990537;28;19906;-61
2021/05/14 07:09:38;;;;;;;;;;;9.40;99.90;;;;;;4989789;28;19944;-61
2021/05/14 07:12:04;;;;;;;;;;;9.50;99.90;;;;;;4989960;28;19910;-63
2021/05/14 07:14:29;;;;;;;;;;;9.50;99.90;;;;;;4989789;28;20001;-62
2021/05/14 07:16:55;;;;;;;;;;;9.50;99.90;;;;;;4990212;28;19992;-62
2021/05/14 07:19:20;;;;;;;;;;;9.50;99.90;;;;;;4989949;28;19910;-57
2021/05/14 07:21:46;;;;;;;;;;;9.50;99.90;;;;;;4989765;28;19912;-59
2021/05/14 07:24:11;;;;;;;;;;;9.50;99.90;;;;;;4989499;28;19914;-58
2021/05/14 07:26:37;;;;;;;;;;;9.50;99.90;;;;;;4989861;28;19906;-60
2021/05/14 07:29:03;;;;;;;;;;;9.60;99.90;;;;;;4990052;28;20044;-63
2021/05/14 07:31:29;;;;;;;;;;;9.60;99.90;;;;;;4989650;28;19952;-60
2021/05/14 07:33:55;;;;;;;;;;;9.50;99.90;;;;;;4989029;28;19940;-60
2021/05/14 07:36:20;;;;;;;;;;;9.50;99.90;;;;;;4989238;28;19912;-56
2021/05/14 07:38:46;;;;;;;;;;;9.50;99.90;;;;;;4988335;28;20372;-54
2021/05/14 07:41:11;;;;;;;;;;;9.50;99.90;;;;;;4988624;28;20288;-60
2021/05/14 07:43:37;;;;;;;;;;;9.50;99.90;;;;;;4989437;28;19941;-61
2021/05/14 07:46:03;;;;;;;;;;;9.50;99.90;;;;;;4989370;28;19913;-61
2021/05/14 07:48:28;;;;;;;;;;;9.60;99.90;;;;;;4990015;28;19910;-60
2021/05/14 07:50:54;;;;;;;;;;;9.60;99.90;;;;;;4989592;28;19980;-60
2021/05/14 07:53:20;;;;;;;;;;;9.60;99.90;;;;;;4985790;28;19965;-63
2021/05/14 07:55:46;;;;;;;;;;;9.70;99.90;;;;;;4986537;28;19988;-59
2021/05/14 07:58:11;;;;;;;;;;;9.70;99.90;;;;;;4989473;28;19913;-61
2021/05/14 08:00:37;;;;;;;;;;;9.80;99.90;;;;;;4989445;28;19906;-61
2021/05/14 08:03:02;;;;;;;;;;;9.90;99.90;;;;;;4989443;28;19906;-61
2021/05/14 08:05:28;;;;;;;;;;;9.90;99.90;;;;;;4989434;28;20012;-63
2021/05/14 08:08:00;;;;;;;;;;;10.00;99.90;;;;;;5000512;28;20364;-65
2021/05/14 08:10:26;;;;;;;;;;;10.00;99.90;;;;;;5009337;28;19913;-62
2021/05/14 08:12:51;;;;;;;;;;;10.00;99.90;;;;;;5010238;28;19912;-60
2021/05/14 08:15:17;;;;;;;;;;;10.00;99.90;;;;;;5010744;28;20387;-61
2021/05/14 08:17:42;;;;;;;;;;;10.10;99.90;;;;;;5011249;28;19906;-58
2021/05/14 08:20:09;;;;;;;;;;;10.10;99.90;;;;;;5008613;28;19906;-62
2021/05/14 08:22:34;;;;;;;;;;;10.20;99.90;;;;;;5011192;28;19905;-64
2021/05/14 08:25:00;;;;;;;;;;;10.20;99.90;;;;;;5007812;28;19920;-60
2021/05/14 08:27:25;;;;;;;;;;;10.20;99.90;;;;;;5006906;28;19913;-63
2021/05/14 08:29:51;;;;;;;;;;;10.20;99.90;;;;;;5004076;28;19913;-63
2021/05/14 08:32:16;;;;;;;;;;;10.30;99.90;;;;;;5010232;28;19906;-62
2021/05/14 08:34:42;;;;;;;;;;;10.30;99.90;;;;;;5009296;28;19913;-62
2021/05/14 08:37:07;;;;;;;;;;;10.30;99.90;;;;;;5009451;28;19921;-62
2021/05/14 08:39:32;;;;;;;;;;;10.30;99.90;;;;;;5006998;28;19910;-62
2021/05/14 08:42:02;;;;;;;;;;;10.40;99.90;;;;;;5009807;28;19906;-62
2021/05/14 08:44:27;;;;;;;;;;;10.40;99.90;;;;;;5007121;28;20330;-61
2021/05/14 08:46:53;;;;;;;;;;;10.40;99.90;;;;;;5010150;28;19905;-63
2021/05/14 08:49:18;;;;;;;;;;;10.50;99.90;;;;;;5010373;28;20620;-55
2021/05/14 08:51:44;;;;;;;;;;;10.50;99.90;;;;;;5007854;28;19914;-62
2021/05/14 08:54:10;;;;;;;;;;;10.40;99.90;;;;;;5004494;28;19909;-64
2021/05/14 08:56:35;;;;;;;;;;;10.40;99.90;;;;;;5009947;28;20287;-58
2021/05/14 08:59:01;;;;;;;;;;;10.50;99.90;;;;;;5008885;28;19905;-58
2021/05/14 09:01:27;;;;;;;;;;;10.50;99.90;;;;;;5009433;28;19905;-61
2021/05/14 09:03:56;;;;;;;;;;;10.50;99.90;;;;;;5008646;28;19952;-60
2021/05/14 09:06:31;;;;;;;;;;;10.50;99.90;;;;;;5009445;28;19981;-59
2021/05/14 09:09:00;;;;;;;;;;;10.60;99.90;;;;;;5010991;28;19909;-57
2021/05/14 09:11:35;;;;;;;;;;;10.60;99.90;;;;;;5003751;28;19909;-58
2021/05/14 09:14:01;;;;;;;;;;;10.60;99.90;;;;;;5009277;28;19956;-59
2021/05/14 09:16:43;;;;;;;;;;;10.70;99.90;;;;;;4998962;28;19945;-58
2021/05/14 09:19:08;;;;;;;;;;;10.60;99.90;;;;;;4995170;28;20327;-62
2021/05/14 09:21:34;;;;;;;;;;;10.60;99.90;;;;;;4991992;28;19906;-59
2021/05/14 09:24:00;;;;;;;;;;;10.50;99.90;;;;;;5004917;28;19914;-60
2021/05/14 09:26:29;;;;;;;;;;;10.60;99.90;;;;;;4997815;28;19918;-57
2021/05/14 09:28:56;;;;;;;;;;;10.60;99.90;;;;;;5005828;28;19933;-58
2021/05/14 09:31:27;;;;;;;;;;;10.60;99.90;;;;;;5010593;28;19912;-60
2021/05/14 09:33:56;;;;;;;;;;;10.50;99.90;;;;;;4998783;28;19937;-59
2021/05/14 09:36:23;;;;;;;;;;;10.60;99.90;;;;;;5008164;28;19972;-61
2021/05/14 09:38:53;;;;;;;;;;;10.50;99.90;;;;;;5005741;28;19953;-63
2021/05/14 09:41:23;;;;;;;;;;;10.50;99.90;;;;;;5010316;28;19906;-60
2021/05/14 09:43:55;;;;;;;;;;;10.50;99.90;;;;;;5007337;28;19913;-59
2021/05/14 09:46:39;;;;;;;;;;;10.50;99.90;;;;;;5009232;28;20295;-61
2021/05/14 09:49:10;;;;;;;;;;;10.50;99.90;;;;;;5003711;28;20453;-63
2021/05/14 09:51:51;;;;;;;;;;;10.50;99.90;;;;;;5007578;28;20027;-58
2021/05/14 09:54:33;;;;;;;;;;;10.50;99.90;;;;;;5007855;28;19906;-61
2021/05/14 09:57:04;;;;;;;;;;;10.40;99.90;;;;;;5008807;28;20447;-60
2021/05/14 09:59:32;;;;;;;;;;;10.40;99.90;;;;;;5007995;28;19961;-62
2021/05/14 10:01:58;;;;;;;;;;;10.40;99.90;;;;;;5008887;28;19932;-62
2021/05/14 10:04:23;;;;;;;;;;;10.40;99.90;;;;;;5007540;28;19913;-58
2021/05/14 10:06:49;;;;;;;;;;;10.40;99.90;;;;;;5007346;28;19960;-56
2021/05/14 10:09:19;;;;;;;;;;;10.30;99.90;;;;;;5008714;28;19980;-60
2021/05/14 10:11:44;;;;;;;;;;;10.30;99.90;;;;;;5009078;28;20157;-59
2021/05/14 10:14:10;;;;;;;;;;;10.30;99.90;;;;;;5004721;28;20000;-60
2021/05/14 10:16:35;;;;;;;;;;;10.30;99.90;;;;;;5007061;28;19905;-62
2021/05/14 10:19:01;;;;;;;;;;;10.30;99.90;;;;;;5007660;28;20482;-61
2021/05/14 10:21:26;;;;;;;;;;;10.20;99.90;;;;;;5007690;28;19932;-57
2021/05/14 10:23:52;;;;;;;;;;;10.20;99.90;;;;;;5008527;28;19905;-61
2021/05/14 10:26:17;;;;;;;;;;;10.20;99.90;;;;;;5007488;28;19910;-58
2021/05/14 10:28:46;;;;;;;;;;;10.20;99.90;;;;;;5007429;28;19905;-59
2021/05/14 10:31:15;;;;;;;;;;;10.20;99.90;;;;;;5005839;28;20462;-62
2021/05/14 10:33:47;;;;;;;;;;;10.20;99.90;;;;;;5008809;28;19996;-60
2021/05/14 10:36:15;;;;;;;;;;;10.20;99.90;;;;;;5006957;28;20000;-62
2021/05/14 10:38:41;;;;;;;;;;;10.20;99.90;;;;;;5004155;28;19917;-63
2021/05/14 10:41:25;;;;;;;;;;;10.20;99.90;;;;;;5007173;28;19905;-63
2021/05/14 10:43:57;;;;;;;;;;;10.20;99.90;;;;;;5006605;28;19905;-62
2021/05/14 10:46:26;;;;;;;;;;;10.20;99.90;;;;;;5008888;28;19909;-56
2021/05/14 10:49:02;;;;;;;;;;;10.20;99.90;;;;;;5007645;28;20016;-61
2021/05/14 10:51:46;;;;;;;;;;;10.20;99.90;;;;;;5008566;28;19905;-58
2021/05/14 10:54:30;;;;;;;;;;;10.20;99.90;;;;;;4998617;28;20016;-58
2021/05/14 10:56:55;;;;;;;;;;;10.20;99.90;;;;;;5007355;28;19905;-62
2021/05/14 10:59:29;;;;;;;;;;;10.20;99.90;;;;;;5005774;28;19912;-63
2021/05/14 11:01:54;;;;;;;;;;;10.20;99.90;;;;;;5007826;28;19932;-61
2021/05/14 11:04:40;;;;;;;;;;;10.20;99.90;;;;;;5007083;28;19914;-61
2021/05/14 11:07:06;;;;;;;;;;;10.20;99.90;;;;;;5007314;28;19905;-63
2021/05/14 11:09:31;;;;;;;;;;;10.30;99.90;;;;;;5002949;28;19905;-63
2021/05/14 11:12:05;;;;;;;;;;;10.30;99.90;;;;;;5006705;28;20482;-62
2021/05/14 11:14:43;;;;;;;;;;;10.30;99.90;;;;;;5004246;28;19960;-62
2021/05/14 11:17:13;;;;;;;;;;;10.30;99.90;;;;;;5008385;28;19912;-59
2021/05/14 11:19:52;;;;;;;;;;;10.30;99.90;;;;;;5006518;28;19955;-62
2021/05/14 11:22:22;;;;;;;;;;;10.30;99.90;;;;;;4983199;28;20430;-63
2021/05/14 11:24:51;;;;;;;;;;;10.30;99.90;;;;;;4989382;28;19910;-60
2021/05/14 11:27:30;;;;;;;;;;;10.30;99.90;;;;;;4989948;28;19906;-61
2021/05/14 11:29:56;;;;;;;;;;;10.20;99.90;;;;;;4989883;28;19914;-63
2021/05/14 11:32:25;;;;;;;;;;;10.10;99.90;;;;;;4989752;28;19905;-59
2021/05/14 11:34:55;;;;;;;;;;;10.10;99.90;;;;;;4989658;28;19950;-59
2021/05/14 11:37:25;;;;;;;;;;;10.00;99.90;;;;;;4988863;28;19957;-63
2021/05/14 11:39:50;;;;;;;;;;;10.00;99.90;;;;;;4988613;28;20510;-57
2021/05/14 11:42:16;;;;;;;;;;;10.00;99.90;;;;;;4993790;28;19906;-60
2021/05/14 11:45:02;;;;;;;;;;;10.00;99.90;;;;;;4986180;28;19945;-61
2021/05/14 11:47:28;;;;;;;;;;;10.00;99.90;;;;;;4982410;28;19909;-60
2021/05/14 11:49:54;;;;;;;;;;;10.00;99.90;;;;;;4989604;28;20004;-59
2021/05/14 11:52:32;;;;;;;;;;;10.00;99.90;;;;;;4988287;28;19922;-61
2021/05/14 11:55:05;;;;;;;;;;;10.10;99.90;;;;;;5003145;28;19910;-59
2021/05/14 11:57:31;;;;;;;;;;;10.10;99.90;;;;;;4993861;28;19910;-56
2021/05/14 11:59:58;;;;;;;;;;;10.10;99.90;;;;;;4989922;28;19906;-58
2021/05/14 12:02:33;;;;;;;;;;;10.00;99.90;;;;;;4989152;28;19980;-61
2021/05/14 12:04:59;;;;;;;;;;;10.00;99.90;;;;;;4988582;28;19910;-61
2021/05/14 12:07:24;;;;;;;;;;;10.00;99.90;;;;;;4989843;28;19995;-57
2021/05/14 12:09:57;;;;;;;;;;;10.00;99.90;;;;;;4989790;28;19917;-60
2021/05/14 12:12:22;;;;;;;;;;;9.90;99.90;;;;;;4989426;28;20296;-54
2021/05/14 12:14:48;;;;;;;;;;;9.90;99.90;;;;;;4981437;28;19905;-58
2021/05/14 12:17:13;;;;;;;;;;;10.00;99.90;;;;;;4989551;28;20299;-60
2021/05/14 12:19:46;;;;;;;;;;;10.00;99.90;;;;;;4989579;28;19909;-61
2021/05/14 12:22:11;;;;;;;;;;;10.00;99.90;;;;;;4995393;28;19913;-58
2021/05/14 12:24:38;;;;;;;;;;;10.00;99.90;;;;;;4988883;28;19910;-58
2021/05/14 12:27:06;;;;;;;;;;;9.90;99.90;;;;;;4989276;28;20364;-62
2021/05/14 12:29:31;;;;;;;;;;;9.90;99.90;;;;;;4987729;28;19912;-60
2021/05/14 12:31:57;;;;;;;;;;;9.90;99.90;;;;;;4989628;28;20372;-56
2021/05/14 12:34:23;;;;;;;;;;;9.90;99.90;;;;;;4989412;28;19928;-60
2021/05/14 12:36:56;;;;;;;;;;;9.90;99.90;;;;;;4981534;28;19988;-59
2021/05/14 12:39:23;;;;;;;;;;;9.90;99.90;;;;;;4988712;28;19905;-59
2021/05/14 12:41:49;;;;;;;;;;;9.90;99.90;;;;;;4988247;28;20265;-59
2021/05/14 12:44:18;;;;;;;;;;;9.90;99.90;;;;;;4989424;28;19913;-60
2021/05/14 12:46:56;;;;;;;;;;;9.90;99.90;;;;;;4989225;28;19906;-62
2021/05/14 12:49:22;;;;;;;;;;;9.90;99.90;;;;;;4981746;28;19977;-57
2021/05/14 12:51:57;;;;;;;;;;;9.90;99.90;;;;;;4988995;28;19926;-61
2021/05/14 12:54:23;;;;;;;;;;;9.90;99.90;;;;;;4983483;28;20280;-61
2021/05/14 12:56:48;;;;;;;;;;;9.90;99.90;;;;;;4989791;28;19909;-59
2021/05/14 12:59:17;;;;;;;;;;;9.90;99.90;;;;;;4992392;28;19905;-61
2021/05/14 13:01:46;;;;;;;;;;;9.90;99.90;;;;;;4992171;28;19905;-60
2021/05/14 13:04:12;;;;;;;;;;;10.00;99.90;;;;;;4990559;28;20513;-59
2021/05/14 13:06:37;;;;;;;;;;;10.00;99.90;;;;;;4992661;28;19912;-61
2021/05/14 13:09:04;;;;;;;;;;;10.00;99.90;;;;;;4990226;28;19917;-62
2021/05/14 13:11:29;;;;;;;;;;;10.00;99.90;;;;;;5007681;28;20354;-60
2021/05/14 13:13:55;;;;;;;;;;;10.00;99.90;;;;;;5006963;28;19913;-64
2021/05/14 13:16:20;;;;;;;;;;;10.00;99.90;;;;;;4994398;28;19909;-59
2021/05/14 13:18:46;;;;;;;;;;;10.00;99.90;;;;;;4992538;28;20379;-61
2021/05/14 13:21:12;;;;;;;;;;;10.00;99.90;;;;;;4991841;28;20434;-62
2021/05/14 13:23:40;;;;;;;;;;;10.00;99.90;;;;;;4989963;28;19921;-62
2021/05/14 13:26:05;;;;;;;;;;;10.00;99.90;;;;;;4992201;28;19910;-56
2021/05/14 13:28:31;;;;;;;;;;;9.90;99.90;;;;;;4992450;28;19960;-58
2021/05/14 13:30:56;;;;;;;;;;;9.90;99.90;;;;;;4992131;28;19910;-58
2021/05/14 13:33:21;;;;;;;;;;;9.80;99.90;;;;;;4992203;28;19996;-62
2021/05/14 13:35:47;;;;;;;;;;;9.80;99.90;;;;;;4992229;28;20396;-60
2021/05/14 13:38:12;;;;;;;;;;;9.70;99.90;;;;;;4991569;28;19960;-59
2021/05/14 13:40:38;;;;;;;;;;;9.70;99.90;;;;;;4989967;28;20334;-62
2021/05/14 13:43:04;;;;;;;;;;;9.70;99.90;;;;;;4990116;28;19906;-58
2021/05/14 13:45:30;;;;;;;;;;;9.70;99.90;;;;;;4991311;28;19955;-59
2021/05/14 13:47:58;;;;;;;;;;;9.70;99.90;;;;;;4991385;28;19912;-62
2021/05/14 13:50:24;;;;;;;;;;;9.70;99.90;;;;;;4990923;28;19906;-63
2021/05/14 13:52:49;;;;;;;;;;;9.70;99.90;;;;;;5023465;22;19921;-56
2021/05/14 13:55:14;;;;;;;;;;;9.70;99.90;;;;;;5028997;28;19992;-58
2021/05/14 13:57:40;;;;;;;;;;;9.70;99.90;;;;;;5030595;28;19905;-56
2021/05/14 14:00:06;;;;;;;;;;;9.70;99.90;;;;;;5030246;28;19992;-57
2021/05/14 14:02:31;;;;;;;;;;;9.70;99.90;;;;;;5030235;28;19912;-57
2021/05/14 14:04:57;;;;;;;;;;;9.70;99.90;;;;;;5028891;28;19924;-57
2021/05/14 14:07:22;;;;;;;;;;;9.60;99.90;;;;;;5027623;28;19919;-58
2021/05/14 14:09:48;;;;;;;;;;;9.60;99.90;;;;;;5028629;28;20363;-57
2021/05/14 14:12:13;;;;;;;;;;;9.60;99.90;;;;;;5028650;28;19932;-55
2021/05/14 14:14:39;;;;;;;;;;;9.50;99.90;;;;;;5030076;28;19909;-57
2021/05/14 14:17:05;;;;;;;;;;;9.50;99.90;;;;;;5030282;28;19905;-56
2021/05/14 14:19:30;;;;;;;;;;;9.50;99.90;;;;;;5028816;28;19905;-55
2021/05/14 14:21:56;;;;;;;;;;;9.50;99.90;;;;;;5029052;28;20003;-58
2021/05/14 14:24:21;;;;;;;;;;;9.60;99.90;;;;;;5029247;28;19905;-57
2021/05/14 14:26:47;;;;;;;;;;;9.60;99.90;;;;;;5029642;28;19916;-56
2021/05/14 14:29:13;;;;;;;;;;;9.60;99.90;;;;;;5029062;28;19905;-54